Time;durP1;ratioP1;P1;durP2;ratioP2;P2;SDS_P1;SDS_P2;PMS_P1;PMS_P2;Temp;Humidity;BMP_temperature;BMP_pressure;BME280_temperature;BME280_humidity;BME280_pressure;Samples;Min_cycle;Max_cycle;Signal;HPM_P1;HPM_P2
2023/12/14 00:01:18;;;;;;;15.82;8.65;;;5.70;99.90;;;;;;5051804;28;20045;-67
2023/12/14 00:03:46;;;;;;;15.07;8.40;;;5.70;99.90;;;;;;5049672;28;20120;-65
2023/12/14 00:06:12;;;;;;;13.25;8.35;;;5.70;99.90;;;;;;5058094;28;20148;-66
2023/12/14 00:08:38;;;;;;;15.18;8.80;;;5.60;99.90;;;;;;5053551;28;20116;-67
2023/12/14 00:11:08;;;;;;;15.40;9.38;;;5.70;99.90;;;;;;5053637;28;20119;-66
2023/12/14 00:13:34;;;;;;;16.10;8.30;;;5.70;99.90;;;;;;5055799;28;20118;-67
2023/12/14 00:16:00;;;;;;;15.70;9.00;;;5.70;99.90;;;;;;5058659;28;20025;-67
2023/12/14 00:18:26;;;;;;;16.02;8.68;;;5.70;99.90;;;;;;5053331;28;20037;-67
2023/12/14 00:20:53;;;;;;;15.15;8.95;;;5.70;99.90;;;;;;5033035;28;20545;-63
2023/12/14 00:23:19;;;;;;;15.18;8.55;;;5.70;99.90;;;;;;5037395;28;20517;-67
2023/12/14 00:25:45;;;;;;;16.35;9.27;;;5.70;99.90;;;;;;5053247;28;20044;-67
2023/12/14 00:28:10;;;;;;;17.08;9.20;;;5.70;99.90;;;;;;5053376;28;20045;-67
2023/12/14 00:30:36;;;;;;;16.50;9.55;;;5.70;99.90;;;;;;5056612;28;20050;-66
2023/12/14 00:33:02;;;;;;;19.10;9.43;;;5.70;99.90;;;;;;5057103;28;20414;-66
2023/12/14 00:35:27;;;;;;;17.17;9.52;;;5.70;99.90;;;;;;5035216;28;20045;-67
2023/12/14 00:37:53;;;;;;;14.38;8.55;;;5.70;99.90;;;;;;5050381;28;20402;-66
2023/12/14 00:40:18;;;;;;;18.25;8.25;;;5.70;99.90;;;;;;5043355;28;20047;-66
2023/12/14 00:42:44;;;;;;;16.25;8.73;;;5.70;99.90;;;;;;5070882;28;20040;-67
2023/12/14 00:45:10;;;;;;;13.07;8.13;;;5.70;99.90;;;;;;5073371;28;20051;-66
2023/12/14 00:47:35;;;;;;;13.60;8.00;;;5.70;99.90;;;;;;5062189;28;20032;-67
2023/12/14 00:50:02;;;;;;;12.55;7.45;;;5.60;99.90;;;;;;5061360;28;20041;-67
2023/12/14 00:52:27;;;;;;;15.35;8.30;;;5.70;99.90;;;;;;5034672;28;20051;-67
2023/12/14 00:54:53;;;;;;;12.57;7.75;;;5.70;99.90;;;;;;5053698;28;20036;-66
2023/12/14 00:57:18;;;;;;;14.52;7.75;;;5.60;99.90;;;;;;5060795;28;20040;-65
2023/12/14 00:59:44;;;;;;;13.38;7.72;;;5.60;99.90;;;;;;5052806;28;20098;-66
2023/12/14 01:02:09;;;;;;;13.48;7.97;;;5.60;99.90;;;;;;5052766;28;20033;-66
2023/12/14 01:04:35;;;;;;;13.70;7.55;;;5.60;99.90;;;;;;5036784;28;20036;-67
2023/12/14 01:07:01;;;;;;;12.60;7.45;;;5.60;99.90;;;;;;5059976;28;20079;-67
2023/12/14 01:09:26;;;;;;;11.50;7.00;;;5.60;99.90;;;;;;5052594;28;20037;-67
2023/12/14 01:11:52;;;;;;;13.93;8.07;;;5.60;99.90;;;;;;5051976;28;20119;-67
2023/12/14 01:14:17;;;;;;;14.10;8.10;;;5.60;99.90;;;;;;5052915;28;20057;-67
2023/12/14 01:16:43;;;;;;;12.38;7.47;;;5.60;99.90;;;;;;5052623;28;20087;-67
2023/12/14 01:19:08;;;;;;;13.52;7.97;;;5.60;99.90;;;;;;5052559;28;20033;-67
2023/12/14 01:21:34;;;;;;;13.25;7.60;;;5.60;99.90;;;;;;5052198;28;20090;-67
2023/12/14 01:24:03;;;;;;;12.10;7.25;;;5.60;99.90;;;;;;5051823;28;20037;-66
2023/12/14 01:26:28;;;;;;;13.05;7.63;;;5.60;99.90;;;;;;5052073;28;20076;-67
2023/12/14 01:28:54;;;;;;;13.20;7.88;;;5.60;99.90;;;;;;5034367;28;21155;-66
2023/12/14 01:31:22;;;;;;;13.20;6.97;;;5.50;99.90;;;;;;5053826;28;20045;-67
2023/12/14 01:33:48;;;;;;;12.93;7.32;;;5.50;99.90;;;;;;5051809;28;20033;-67
2023/12/14 01:36:23;;;;;;;11.48;7.28;;;5.50;99.90;;;;;;5050742;28;20119;-66
2023/12/14 01:38:49;;;;;;;14.65;8.10;;;5.50;99.90;;;;;;5053528;28;20380;-66
2023/12/14 01:41:15;;;;;;;12.80;7.10;;;5.50;99.90;;;;;;5057749;28;20482;-67
2023/12/14 01:43:40;;;;;;;14.88;8.00;;;5.60;99.90;;;;;;5072053;28;20051;-66
2023/12/14 01:46:06;;;;;;;14.88;7.57;;;5.60;99.90;;;;;;5060790;28;20127;-64
2023/12/14 01:48:31;;;;;;;14.25;7.95;;;5.60;99.90;;;;;;5058661;28;20124;-67
2023/12/14 01:50:57;;;;;;;14.52;7.43;;;5.60;99.90;;;;;;5051758;28;20068;-66
2023/12/14 01:53:22;;;;;;;14.20;8.38;;;5.60;99.90;;;;;;5051424;28;20460;-66
2023/12/14 01:55:48;;;;;;;14.20;8.05;;;5.50;99.90;;;;;;5057311;28;20120;-67
2023/12/14 01:58:14;;;;;;;13.57;7.85;;;5.60;99.90;;;;;;5051549;28;20686;-67
2023/12/14 02:00:45;;;;;;;12.93;7.45;;;5.60;99.90;;;;;;5051266;28;20047;-65
2023/12/14 02:03:10;;;;;;;11.25;6.78;;;5.60;99.90;;;;;;5054631;28;20045;-65
2023/12/14 02:05:36;;;;;;;11.63;5.90;;;5.60;99.90;;;;;;5051348;28;20041;-67
2023/12/14 02:08:02;;;;;;;13.50;6.50;;;5.50;99.90;;;;;;5051493;28;20037;-67
2023/12/14 02:10:27;;;;;;;14.48;7.78;;;5.50;99.90;;;;;;5049883;28;20041;-67
2023/12/14 02:12:53;;;;;;;16.55;7.75;;;5.50;99.90;;;;;;5050558;28;20125;-66
2023/12/14 02:15:18;;;;;;;10.57;5.60;;;5.50;99.90;;;;;;5034272;28;20512;-67
2023/12/14 02:17:44;;;;;;;11.23;6.18;;;5.50;99.90;;;;;;5067688;28;20448;-67
2023/12/14 02:20:10;;;;;;;13.70;7.00;;;5.50;99.90;;;;;;5043894;28;20028;-67
2023/12/14 02:22:50;;;;;;;12.77;6.53;;;5.50;99.90;;;;;;5050394;28;20040;-67
2023/12/14 02:25:16;;;;;;;13.00;7.32;;;5.50;99.90;;;;;;5032304;28;20071;-62
2023/12/14 02:27:41;;;;;;;13.13;7.10;;;5.50;99.90;;;;;;5055445;28;20524;-67
2023/12/14 02:30:07;;;;;;;11.60;6.97;;;5.40;99.90;;;;;;5054574;28;20107;-66
2023/12/14 02:32:33;;;;;;;15.68;7.03;;;5.40;99.90;;;;;;5050599;28;20068;-67
2023/12/14 02:34:58;;;;;;;11.75;6.78;;;5.40;99.90;;;;;;5051119;28;20083;-67
2023/12/14 02:37:24;;;;;;;13.38;7.10;;;5.40;99.90;;;;;;5064255;28;20076;-66
2023/12/14 02:39:49;;;;;;;10.73;6.22;;;5.40;99.90;;;;;;5051040;28;20041;-66
2023/12/14 02:42:15;;;;;;;11.43;6.38;;;5.40;99.90;;;;;;5061447;28;20037;-67
2023/12/14 02:44:40;;;;;;;12.18;6.32;;;5.40;99.90;;;;;;5055896;28;20487;-67
2023/12/14 02:47:06;;;;;;;10.88;6.07;;;5.40;99.90;;;;;;5032786;28;20037;-67
2023/12/14 02:49:32;;;;;;;9.43;4.55;;;5.40;99.90;;;;;;5050712;28;20039;-66
2023/12/14 02:51:57;;;;;;;14.20;8.00;;;5.40;99.90;;;;;;5054046;28;20183;-65
2023/12/14 02:54:23;;;;;;;12.88;7.43;;;5.30;99.90;;;;;;5040146;28;20045;-66
2023/12/14 02:56:49;;;;;;;10.77;5.70;;;5.30;99.90;;;;;;5050902;28;20047;-67
2023/12/14 02:59:14;;;;;;;10.60;5.53;;;5.30;99.90;;;;;;5050606;28;20039;-67
2023/12/14 03:01:40;;;;;;;12.48;6.68;;;5.30;99.90;;;;;;5049018;28;20116;-67
2023/12/14 03:04:07;;;;;;;15.68;7.28;;;5.30;99.90;;;;;;5049918;28;20123;-66
2023/12/14 03:06:33;;;;;;;13.93;6.80;;;5.30;99.90;;;;;;5050347;28;20613;-66
2023/12/14 03:08:59;;;;;;;12.65;6.18;;;5.30;99.90;;;;;;5055445;28;20035;-66
2023/12/14 03:11:25;;;;;;;13.00;6.90;;;5.30;99.90;;;;;;5055301;28;20037;-66
2023/12/14 03:13:51;;;;;;;13.27;6.95;;;5.30;99.90;;;;;;5050103;28;20037;-66
2023/12/14 03:16:17;;;;;;;14.15;6.80;;;5.30;99.90;;;;;;5051134;28;20490;-65
2023/12/14 03:18:43;;;;;;;14.52;6.57;;;5.20;99.90;;;;;;5053318;28;20037;-66
2023/12/14 03:21:09;;;;;;;12.73;7.28;;;5.20;99.90;;;;;;5032118;28;20079;-67
2023/12/14 03:23:35;;;;;;;12.90;5.82;;;5.20;99.90;;;;;;5050251;28;20044;-66
2023/12/14 03:26:01;;;;;;;10.57;5.97;;;5.20;99.90;;;;;;5018842;28;20125;-66
2023/12/14 03:28:27;;;;;;;14.05;7.63;;;5.20;99.90;;;;;;5031907;28;20068;-67
2023/12/14 03:30:52;;;;;;;12.25;5.88;;;5.20;99.90;;;;;;5050421;28;20044;-67
2023/12/14 03:33:19;;;;;;;13.25;6.97;;;5.20;99.90;;;;;;5047360;28;20495;-66
2023/12/14 03:35:46;;;;;;;13.50;7.07;;;5.20;99.90;;;;;;5032146;28;20045;-66
2023/12/14 03:38:14;;;;;;;12.88;6.57;;;5.20;99.90;;;;;;5050141;28;20037;-66
2023/12/14 03:40:40;;;;;;;13.93;7.18;;;5.20;99.90;;;;;;5051390;28;20040;-67
2023/12/14 03:43:06;;;;;;;13.30;6.80;;;5.20;99.90;;;;;;5058204;28;20047;-67
2023/12/14 03:45:31;;;;;;;13.23;6.85;;;5.20;99.90;;;;;;5053967;28;20444;-67
2023/12/14 03:47:57;;;;;;;13.65;7.53;;;5.20;99.90;;;;;;5054249;28;20549;-66
2023/12/14 03:50:23;;;;;;;10.98;5.10;;;5.20;99.90;;;;;;5052591;28;20394;-65
2023/12/14 03:52:48;;;;;;;9.65;5.22;;;5.20;99.90;;;;;;5069891;28;20033;-67
2023/12/14 03:55:17;;;;;;;14.07;6.25;;;5.20;99.90;;;;;;5038360;28;20098;-66
2023/12/14 03:57:42;;;;;;;13.18;6.43;;;5.20;99.90;;;;;;5034676;28;20075;-67
2023/12/14 04:00:14;;;;;;;14.07;6.55;;;5.20;99.90;;;;;;5053182;28;20060;-66
2023/12/14 04:02:40;;;;;;;10.35;5.85;;;5.20;99.90;;;;;;5053225;28;20112;-66
2023/12/14 04:05:09;;;;;;;12.68;6.15;;;5.20;99.90;;;;;;5054151;28;20125;-65
2023/12/14 04:07:36;;;;;;;13.10;6.78;;;5.20;99.90;;;;;;5036248;28;20037;-67
2023/12/14 04:10:02;;;;;;;12.15;6.43;;;5.10;99.90;;;;;;5064135;28;20087;-66
2023/12/14 04:12:28;;;;;;;10.90;6.20;;;5.20;99.90;;;;;;5053243;28;20045;-67
2023/12/14 04:14:53;;;;;;;14.82;6.65;;;5.20;99.90;;;;;;5055272;28;20105;-67
2023/12/14 04:17:19;;;;;;;12.52;7.00;;;5.20;99.90;;;;;;5051808;28;20083;-66
2023/12/14 04:19:44;;;;;;;13.02;7.45;;;5.20;99.90;;;;;;5053548;28;20033;-67
2023/12/14 04:22:10;;;;;;;13.32;7.03;;;5.20;99.90;;;;;;5053716;28;20048;-66
2023/12/14 04:24:35;;;;;;;15.15;7.22;;;5.20;99.90;;;;;;5052893;28;20029;-67
2023/12/14 04:27:01;;;;;;;11.80;4.57;;;5.20;99.90;;;;;;5053094;28;20182;-67
2023/12/14 04:29:26;;;;;;;12.93;6.82;;;5.20;99.90;;;;;;5053381;28;20048;-65
2023/12/14 04:31:53;;;;;;;12.93;7.13;;;5.20;99.90;;;;;;5054899;28;20028;-67
2023/12/14 04:39:29;;;;;;;13.57;6.82;;;5.20;99.90;;;;;;5773691;22;20057;-67
2023/12/14 04:41:55;;;;;;;13.10;5.90;;;5.20;99.90;;;;;;5011713;28;20491;-68
2023/12/14 04:44:21;;;;;;;11.25;5.85;;;5.20;99.90;;;;;;5031950;28;20491;-68
2023/12/14 04:46:48;;;;;;;13.00;6.53;;;5.20;99.90;;;;;;5035046;28;20067;-69
2023/12/14 04:49:13;;;;;;;12.27;6.90;;;5.20;99.90;;;;;;5010122;28;20462;-69
2023/12/14 04:51:39;;;;;;;13.23;6.38;;;5.20;99.90;;;;;;5029868;28;20037;-68
2023/12/14 04:54:04;;;;;;;15.45;6.93;;;5.20;99.90;;;;;;5034694;28;20048;-68
2023/12/14 04:56:30;;;;;;;15.60;7.50;;;5.20;99.90;;;;;;5035258;28;20329;-67
2023/12/14 04:58:55;;;;;;;12.75;6.97;;;5.20;99.90;;;;;;5028145;28;20038;-67
2023/12/14 05:01:21;;;;;;;14.55;7.07;;;5.20;99.90;;;;;;5028468;28;20036;-67
2023/12/14 05:03:47;;;;;;;13.18;6.75;;;5.20;99.90;;;;;;5052345;28;20040;-68
2023/12/14 05:06:13;;;;;;;14.80;7.20;;;5.10;99.90;;;;;;5024360;28;20045;-67
2023/12/14 05:14:52;;;;;;;11.18;5.68;;;5.10;99.90;;;;;;5037979;28;20600;-69
2023/12/14 05:17:17;;;;;;;12.82;6.68;;;5.10;99.90;;;;;;5050833;28;20045;-70
2023/12/14 05:40:26;;;;;;;14.77;7.18;;;5.10;99.90;;;;;;5260689;22;20052;-68
2023/12/14 05:45:28;;;;;;;14.38;7.25;;;5.10;99.90;;;;;;5754664;22;20052;-67
2023/12/14 05:58:15;;;;;;;13.02;7.03;;;5.10;99.90;;;;;;5966818;22;20048;-66
2023/12/14 06:00:41;;;;;;;14.60;7.65;;;5.10;99.90;;;;;;5020257;28;20030;-65
2023/12/14 06:03:06;;;;;;;16.42;7.45;;;5.10;99.90;;;;;;5011462;28;20510;-66
2023/12/14 06:05:32;;;;;;;13.40;7.22;;;5.10;99.90;;;;;;5028412;28;20459;-66
2023/12/14 06:07:57;;;;;;;11.88;6.70;;;5.10;99.90;;;;;;5011834;28;20042;-63
2023/12/14 06:10:23;;;;;;;17.35;7.30;;;5.10;99.90;;;;;;5022200;28;20062;-65
2023/12/14 06:12:49;;;;;;;15.38;7.28;;;5.10;99.90;;;;;;5024866;28;20091;-66
2023/12/14 06:15:14;;;;;;;12.50;6.82;;;5.10;99.90;;;;;;5223538;22;20503;-67
2023/12/14 06:17:42;;;;;;;15.82;6.65;;;5.10;99.90;;;;;;5013203;28;20037;-69
2023/12/14 06:20:11;;;;;;;14.82;7.55;;;5.10;99.90;;;;;;5002742;28;20532;-72
2023/12/14 06:22:37;;;;;;;18.15;7.40;;;5.10;99.90;;;;;;5021156;28;20087;-67
2023/12/14 06:25:03;;;;;;;17.55;7.55;;;5.10;99.90;;;;;;5347720;22;20044;-67
2023/12/14 06:27:29;;;;;;;13.65;6.75;;;5.10;99.90;;;;;;5032716;28;20045;-67
2023/12/14 06:29:54;;;;;;;13.95;7.22;;;5.10;99.90;;;;;;5050156;28;20718;-69
2023/12/14 06:32:20;;;;;;;16.42;8.00;;;5.10;99.90;;;;;;5036837;28;20525;-69
2023/12/14 06:34:46;;;;;;;16.40;8.10;;;5.10;99.90;;;;;;5039611;28;20750;-71
2023/12/14 06:37:12;;;;;;;15.05;7.88;;;5.10;99.90;;;;;;5028839;28;20055;-68
2023/12/14 06:39:37;;;;;;;16.55;7.90;;;5.10;99.90;;;;;;5019369;28;20033;-68
2023/12/14 06:42:03;;;;;;;16.58;7.90;;;5.10;99.90;;;;;;5030427;28;20086;-68
2023/12/14 06:44:30;;;;;;;16.65;8.07;;;5.10;99.90;;;;;;5024250;28;20049;-67
2023/12/14 06:46:57;;;;;;;13.25;7.55;;;5.10;99.90;;;;;;5017970;28;20067;-67
2023/12/14 06:49:24;;;;;;;15.18;8.10;;;5.10;99.90;;;;;;5014391;28;20045;-67
2023/12/14 06:51:50;;;;;;;14.95;8.15;;;5.10;99.90;;;;;;5055578;28;20045;-68
2023/12/14 06:54:15;;;;;;;18.27;8.38;;;5.10;99.90;;;;;;5037396;28;20033;-71
2023/12/14 06:56:42;;;;;;;17.02;8.38;;;5.10;99.90;;;;;;5059077;28;20024;-68
2023/12/14 06:59:08;;;;;;;14.52;6.43;;;5.10;99.90;;;;;;5025030;28;20078;-67
2023/12/14 07:01:34;;;;;;;16.98;7.65;;;5.10;99.90;;;;;;5031510;28;20045;-69
2023/12/14 07:04:00;;;;;;;14.95;7.50;;;5.10;99.90;;;;;;5032352;28;20125;-71
2023/12/14 07:06:26;;;;;;;16.45;8.55;;;5.10;99.90;;;;;;5038179;28;20138;-69
2023/12/14 07:08:51;;;;;;;19.23;8.32;;;5.10;99.90;;;;;;5039531;28;20518;-69
2023/12/14 07:11:17;;;;;;;13.80;7.30;;;5.10;99.90;;;;;;5024984;28;20052;-70
2023/12/14 07:13:43;;;;;;;15.00;8.43;;;5.10;99.90;;;;;;5031298;28;20040;-69
2023/12/14 07:34:16;;;;;;;15.55;7.82;;;5.00;99.90;;;;;;5335502;22;20049;-68
2023/12/14 07:36:42;;;;;;;14.55;7.68;;;5.00;99.90;;;;;;4984893;28;20396;-68
2023/12/14 07:39:09;;;;;;;16.48;8.20;;;5.00;99.90;;;;;;5009403;28;20037;-68
2023/12/14 07:41:35;;;;;;;15.05;7.63;;;5.00;99.90;;;;;;5011204;28;20048;-68
2023/12/14 07:44:01;;;;;;;17.63;8.20;;;5.10;99.90;;;;;;4995687;28;20484;-68
2023/12/14 07:49:02;;;;;;;14.93;7.97;;;5.00;99.90;;;;;;5367937;22;20514;-69
2023/12/14 07:51:27;;;;;;;14.98;8.07;;;5.00;99.90;;;;;;5034213;28;20034;-68
2023/12/14 07:53:53;;;;;;;15.50;7.85;;;5.10;99.90;;;;;;5480379;22;20026;-68
2023/12/14 07:56:18;;;;;;;14.18;7.30;;;5.10;99.90;;;;;;5050128;28;20052;-68
2023/12/14 07:58:44;;;;;;;16.92;7.97;;;5.00;99.90;;;;;;5033323;28;20479;-68
2023/12/14 08:01:09;;;;;;;15.30;7.85;;;5.00;99.90;;;;;;5037317;28;20033;-68
2023/12/14 08:03:35;;;;;;;13.43;7.70;;;5.10;99.90;;;;;;5043938;28;20086;-68
2023/12/14 08:06:01;;;;;;;15.95;7.22;;;5.00;99.90;;;;;;5032936;28;20125;-68
2023/12/14 08:11:03;;;;;;;14.15;6.65;;;5.00;99.90;;;;;;5197983;22;20052;-68
2023/12/14 08:13:28;;;;;;;17.00;8.38;;;5.00;99.90;;;;;;5052006;28;20115;-71
2023/12/14 08:15:54;;;;;;;15.32;7.60;;;5.00;99.90;;;;;;5064471;28;20124;-71
2023/12/14 08:18:19;;;;;;;16.38;7.13;;;5.10;99.90;;;;;;5046117;28;20044;-71
2023/12/14 08:33:44;;;;;;;15.13;8.07;;;5.10;99.90;;;;;;5715635;22;20071;-68
2023/12/14 08:41:27;;;;;;;19.00;8.50;;;5.10;99.90;;;;;;5654747;22;20511;-68
2023/12/14 08:43:53;;;;;;;15.93;8.25;;;5.10;99.90;;;;;;5025345;28;20063;-68
2023/12/14 08:51:26;;;;;;;16.85;7.95;;;5.10;99.90;;;;;;5043094;28;20056;-66
2023/12/14 08:53:52;;;;;;;18.23;8.02;;;5.20;99.90;;;;;;5030712;28;20073;-67
2023/12/14 08:56:17;;;;;;;15.57;8.10;;;5.20;99.90;;;;;;5022984;28;20062;-67
2023/12/14 08:58:43;;;;;;;15.40;7.93;;;5.10;99.90;;;;;;5016746;28;20463;-66
2023/12/14 09:01:08;;;;;;;16.95;8.35;;;5.20;99.90;;;;;;5024375;28;20399;-70
2023/12/14 09:13:55;;;;;;;15.88;8.15;;;5.30;99.90;;;;;;5984661;22;20380;-66
2023/12/14 09:16:21;;;;;;;15.70;7.40;;;5.30;99.90;;;;;;5025141;28;20063;-66
2023/12/14 09:18:47;;;;;;;19.15;8.52;;;5.30;99.90;;;;;;5031972;28;20041;-66
2023/12/14 09:21:12;;;;;;;17.77;8.40;;;5.30;99.90;;;;;;5032256;28;20048;-65
2023/12/14 09:23:40;;;;;;;17.15;7.97;;;5.30;99.90;;;;;;5030943;28;20344;-62
2023/12/14 09:26:06;;;;;;;16.85;8.32;;;5.40;99.90;;;;;;5007717;28;20049;-65
2023/12/14 09:28:31;;;;;;;15.48;8.18;;;5.40;99.90;;;;;;5020858;28;20038;-66
2023/12/14 09:30:57;;;;;;;18.42;8.15;;;5.40;99.90;;;;;;5011130;28;20117;-65
2023/12/14 09:33:22;;;;;;;18.40;8.88;;;5.40;99.90;;;;;;5011160;28;20046;-66
2023/12/14 09:35:48;;;;;;;17.70;8.00;;;5.40;99.90;;;;;;5018482;28;20038;-66
2023/12/14 09:38:16;;;;;;;15.40;8.38;;;5.50;99.90;;;;;;5012134;28;20519;-66
2023/12/14 09:40:43;;;;;;;15.85;8.32;;;5.50;99.90;;;;;;5010610;28;20029;-66
2023/12/14 09:43:09;;;;;;;20.65;9.45;;;5.60;99.90;;;;;;5025012;28;20069;-65
2023/12/14 09:45:37;;;;;;;14.10;7.88;;;5.60;99.90;;;;;;5012450;28;20042;-64
2023/12/14 09:48:05;;;;;;;16.42;8.02;;;5.60;99.90;;;;;;5007080;28;20120;-65
2023/12/14 09:50:31;;;;;;;17.50;8.55;;;5.60;99.90;;;;;;5015245;28;20531;-66
2023/12/14 09:52:57;;;;;;;17.63;8.40;;;5.60;99.90;;;;;;5031510;28;20041;-63
2023/12/14 09:55:22;;;;;;;17.83;9.52;;;5.60;99.90;;;;;;5009090;28;20034;-63
2023/12/14 09:57:48;;;;;;;16.73;8.43;;;5.60;99.90;;;;;;4993903;28;20451;-66
2023/12/14 10:00:36;;;;;;;16.67;8.23;;;5.60;99.90;;;;;;5025991;28;20120;-66
2023/12/14 10:03:21;;;;;;;18.25;8.98;;;5.60;99.90;;;;;;4995305;28;20048;-65
2023/12/14 10:05:48;;;;;;;17.83;8.63;;;5.60;99.90;;;;;;4997273;28;20038;-65
2023/12/14 10:08:14;;;;;;;17.65;8.90;;;5.60;99.90;;;;;;5019411;28;20041;-66
2023/12/14 10:10:40;;;;;;;17.05;9.13;;;5.60;99.90;;;;;;5012648;28;20437;-65
2023/12/14 10:13:06;;;;;;;18.08;8.73;;;5.60;99.90;;;;;;5021090;28;20487;-66
2023/12/14 10:15:41;;;;;;;17.38;8.93;;;5.60;99.90;;;;;;5030554;28;20037;-65
2023/12/14 10:18:06;;;;;;;18.40;9.30;;;5.60;99.90;;;;;;5031730;28;20044;-66
2023/12/14 10:20:32;;;;;;;18.20;8.63;;;5.70;99.90;;;;;;4996951;28;20037;-66
2023/12/14 10:22:57;;;;;;;21.05;9.25;;;5.70;99.90;;;;;;5015857;28;20029;-66
2023/12/14 10:25:23;;;;;;;19.02;9.02;;;5.80;99.90;;;;;;5011785;28;20037;-65
2023/12/14 10:27:52;;;;;;;17.50;8.02;;;5.70;99.90;;;;;;5031516;28;20038;-66
2023/12/14 10:30:19;;;;;;;17.55;8.40;;;5.80;99.90;;;;;;5024495;28;20068;-66
2023/12/14 10:32:47;;;;;;;19.38;8.85;;;5.80;99.90;;;;;;5012666;28;20037;-65
2023/12/14 10:35:15;;;;;;;15.50;8.27;;;5.80;99.90;;;;;;5027924;28;20091;-65
2023/12/14 10:37:42;;;;;;;17.77;8.80;;;5.90;99.90;;;;;;5028050;28;20037;-66
2023/12/14 10:40:13;;;;;;;17.52;8.95;;;5.90;99.90;;;;;;5009108;28;20038;-65
2023/12/14 10:42:42;;;;;;;16.85;9.65;;;5.90;99.90;;;;;;5020781;28;20076;-64
2023/12/14 10:45:10;;;;;;;19.20;9.40;;;5.90;99.90;;;;;;5029396;28;20120;-64
2023/12/14 10:47:39;;;;;;;17.98;9.18;;;5.90;99.90;;;;;;4995736;28;20038;-63
2023/12/14 10:50:05;;;;;;;19.00;9.05;;;5.90;99.90;;;;;;5026316;28;20064;-64
2023/12/14 10:52:35;;;;;;;19.17;9.10;;;5.90;99.90;;;;;;5012650;28;20049;-66
2023/12/14 10:55:07;;;;;;;18.33;8.73;;;5.90;99.90;;;;;;4987708;28;20046;-64
2023/12/14 10:57:34;;;;;;;17.45;8.73;;;5.90;99.90;;;;;;5017226;28;20072;-64
2023/12/14 11:00:00;;;;;;;18.17;8.68;;;5.90;99.90;;;;;;5030827;28;20040;-67
2023/12/14 11:02:26;;;;;;;18.23;8.65;;;5.90;99.90;;;;;;5008353;28;20384;-67
2023/12/14 11:05:05;;;;;;;16.63;8.95;;;5.90;99.90;;;;;;4991930;28;20096;-67
2023/12/14 11:07:47;;;;;;;18.25;8.90;;;6.00;99.90;;;;;;5011704;28;20037;-67
2023/12/14 11:10:14;;;;;;;15.77;8.25;;;6.00;99.90;;;;;;5013073;28;20624;-66
2023/12/14 11:12:51;;;;;;;20.08;8.93;;;6.00;99.90;;;;;;4993891;28;20048;-66
2023/12/14 11:15:19;;;;;;;19.10;9.15;;;6.10;99.90;;;;;;5028673;28;20053;-63
2023/12/14 11:18:08;;;;;;;17.63;8.98;;;6.10;99.90;;;;;;5017998;28;20380;-63
2023/12/14 11:20:46;;;;;;;17.13;8.75;;;6.10;99.90;;;;;;5017415;28;20041;-63
2023/12/14 11:23:26;;;;;;;17.60;8.85;;;6.10;99.90;;;;;;5030384;28;20119;-62
2023/12/14 11:26:06;;;;;;;18.38;9.20;;;6.20;99.90;;;;;;5024456;28;20132;-63
2023/12/14 11:28:33;;;;;;;16.25;8.70;;;6.10;99.90;;;;;;5008959;28;20467;-63
2023/12/14 11:31:01;;;;;;;17.25;8.75;;;6.10;99.90;;;;;;5019665;28;20037;-63
2023/12/14 11:33:28;;;;;;;18.33;8.52;;;6.10;99.90;;;;;;5029798;28;20033;-63
2023/12/14 11:35:55;;;;;;;20.20;8.93;;;6.10;99.90;;;;;;5026295;28;20038;-65
2023/12/14 11:38:23;;;;;;;17.77;8.60;;;6.10;99.90;;;;;;4995111;28;20092;-69
2023/12/14 11:40:49;;;;;;;17.88;8.63;;;6.00;99.90;;;;;;5027354;28;20116;-65
2023/12/14 11:43:15;;;;;;;18.52;8.85;;;6.10;99.90;;;;;;5010410;28;20046;-65
2023/12/14 11:45:41;;;;;;;19.13;8.80;;;6.10;99.90;;;;;;5006106;28;20097;-66
2023/12/14 11:48:10;;;;;;;16.73;8.13;;;6.10;99.90;;;;;;5020202;28;20041;-65
2023/12/14 11:50:40;;;;;;;16.60;8.95;;;6.20;99.90;;;;;;5014695;28;20038;-64
2023/12/14 11:53:07;;;;;;;17.77;9.18;;;6.20;99.90;;;;;;5023005;28;20058;-64
2023/12/14 11:55:36;;;;;;;16.65;8.82;;;6.20;99.90;;;;;;5019184;28;20034;-65
2023/12/14 11:58:03;;;;;;;17.70;9.07;;;6.20;99.90;;;;;;5030243;28;20041;-65
2023/12/14 12:00:29;;;;;;;18.98;8.98;;;6.20;99.90;;;;;;5030441;28;20084;-65
2023/12/14 12:03:21;;;;;;;14.98;8.25;;;6.20;99.90;;;;;;5018149;28;20045;-65
2023/12/14 12:05:49;;;;;;;17.48;9.05;;;6.30;99.90;;;;;;5021013;28;20037;-65
2023/12/14 12:08:20;;;;;;;17.20;9.02;;;6.30;99.90;;;;;;5034238;28;20455;-64
2023/12/14 12:10:47;;;;;;;20.60;9.27;;;6.20;99.90;;;;;;5032467;28;20037;-65
2023/12/14 12:13:15;;;;;;;19.13;9.55;;;6.20;99.90;;;;;;5018392;28;20057;-64
2023/12/14 12:15:41;;;;;;;16.70;8.48;;;6.20;99.90;;;;;;5033660;28;20703;-67
2023/12/14 12:18:09;;;;;;;18.42;8.90;;;6.20;99.90;;;;;;5024647;28;20038;-64
2023/12/14 12:20:35;;;;;;;16.58;8.98;;;6.20;99.90;;;;;;5014013;28;20038;-65
2023/12/14 12:23:02;;;;;;;16.48;9.02;;;6.10;99.90;;;;;;5033090;28;20103;-64
2023/12/14 12:25:28;;;;;;;17.67;8.57;;;6.20;99.90;;;;;;5033886;28;20037;-65
2023/12/14 12:27:57;;;;;;;17.20;8.77;;;6.20;99.90;;;;;;5010667;28;20079;-68
2023/12/14 12:30:23;;;;;;;18.00;9.10;;;6.30;99.90;;;;;;5032464;28;20040;-67
2023/12/14 12:32:51;;;;;;;16.63;8.88;;;6.30;99.90;;;;;;5034081;28;20112;-67
2023/12/14 12:35:17;;;;;;;18.05;9.25;;;6.40;99.90;;;;;;5021991;28;20136;-67
2023/12/14 12:37:44;;;;;;;17.65;9.13;;;6.50;99.90;;;;;;5008842;28;20499;-67
2023/12/14 12:40:10;;;;;;;18.58;8.73;;;6.50;99.90;;;;;;5034155;28;20056;-67
2023/12/14 12:42:35;;;;;;;16.58;8.55;;;6.50;99.90;;;;;;5017021;28;20034;-67
2023/12/14 12:45:01;;;;;;;19.35;8.90;;;6.60;99.90;;;;;;5010159;28;20045;-67
2023/12/14 12:47:26;;;;;;;15.65;7.82;;;6.60;99.90;;;;;;5025176;28;20045;-67
2023/12/14 12:49:52;;;;;;;15.20;8.10;;;6.60;99.90;;;;;;5010449;28;20053;-68
2023/12/14 12:52:18;;;;;;;14.88;7.32;;;6.60;99.90;;;;;;5018484;28;20045;-68
2023/12/14 12:54:43;;;;;;;15.38;8.05;;;6.60;99.90;;;;;;5032143;28;20492;-67
2023/12/14 12:57:09;;;;;;;13.80;7.55;;;6.50;99.90;;;;;;5033876;28;20038;-67
2023/12/14 12:59:35;;;;;;;20.27;9.15;;;6.50;99.90;;;;;;5027474;28;20121;-68
2023/12/14 13:02:02;;;;;;;17.70;8.75;;;6.50;99.90;;;;;;5007596;28;20404;-67
2023/12/14 13:04:30;;;;;;;17.08;9.15;;;6.60;99.90;;;;;;5025803;28;20442;-67
2023/12/14 13:06:55;;;;;;;17.17;8.82;;;6.50;99.90;;;;;;4993470;28;20407;-67
2023/12/14 13:09:21;;;;;;;18.23;9.13;;;6.50;99.90;;;;;;4998607;28;20512;-67
2023/12/14 13:11:47;;;;;;;17.98;9.23;;;6.40;99.90;;;;;;4999601;28;20037;-67
2023/12/14 13:14:14;;;;;;;18.05;9.13;;;6.40;99.90;;;;;;5032066;28;20045;-67
2023/12/14 13:16:40;;;;;;;16.27;9.20;;;6.40;99.90;;;;;;5032752;28;20043;-67
2023/12/14 13:19:06;;;;;;;16.30;9.27;;;6.40;99.90;;;;;;5014809;28;20041;-67
2023/12/14 13:21:35;;;;;;;15.10;8.52;;;6.40;99.90;;;;;;5021138;28;20031;-67
2023/12/14 13:24:01;;;;;;;16.35;8.95;;;6.40;99.90;;;;;;5018757;28;20053;-67
2023/12/14 13:26:27;;;;;;;15.75;9.15;;;6.40;99.90;;;;;;5011205;28;20042;-67
2023/12/14 13:28:53;;;;;;;16.73;9.23;;;6.30;99.90;;;;;;5003103;28;20042;-67
2023/12/14 13:31:19;;;;;;;18.15;9.63;;;6.30;99.90;;;;;;5030256;28;20046;-67
2023/12/14 13:33:46;;;;;;;17.85;9.05;;;6.30;99.90;;;;;;5019035;28;20033;-67
2023/12/14 13:36:12;;;;;;;17.02;9.05;;;6.30;99.90;;;;;;5018035;28;20043;-67
2023/12/14 13:38:38;;;;;;;18.05;8.95;;;6.20;99.90;;;;;;5024884;28;20034;-67
2023/12/14 13:41:03;;;;;;;15.90;8.80;;;6.30;99.90;;;;;;5003127;28;20125;-67
2023/12/14 13:43:29;;;;;;;18.92;9.00;;;6.20;99.90;;;;;;5001333;28;20091;-67
2023/12/14 13:45:58;;;;;;;18.55;8.60;;;6.20;99.90;;;;;;5007750;28;20080;-67
2023/12/14 13:48:25;;;;;;;18.35;8.35;;;6.10;99.90;;;;;;5005111;28;20069;-68
2023/12/14 13:50:51;;;;;;;19.65;9.00;;;6.10;99.90;;;;;;5004276;28;20073;-67
2023/12/14 13:53:17;;;;;;;16.33;9.05;;;6.10;99.90;;;;;;5006626;28;20077;-67
2023/12/14 13:55:42;;;;;;;17.00;8.60;;;6.00;99.90;;;;;;5011194;28;20032;-67
2023/12/14 13:58:08;;;;;;;18.92;8.98;;;6.00;99.90;;;;;;4998466;28;20034;-66
2023/12/14 14:00:34;;;;;;;17.13;8.82;;;6.00;99.90;;;;;;5003870;28;20033;-67
2023/12/14 14:03:00;;;;;;;14.98;8.43;;;6.00;99.90;;;;;;5005028;28;20038;-67
2023/12/14 14:05:26;;;;;;;17.35;8.70;;;5.90;99.90;;;;;;4987310;28;20052;-65
2023/12/14 14:07:52;;;;;;;17.52;8.65;;;5.90;99.90;;;;;;4998776;28;20117;-66
2023/12/14 14:10:19;;;;;;;19.77;8.52;;;5.90;99.90;;;;;;5011214;28;20037;-66
2023/12/14 14:12:45;;;;;;;16.42;8.05;;;5.90;99.90;;;;;;5020282;28;20068;-66
2023/12/14 14:15:11;;;;;;;17.00;8.63;;;5.90;99.90;;;;;;5002330;28;20038;-66
2023/12/14 14:17:36;;;;;;;18.67;8.63;;;5.80;99.90;;;;;;5012773;28;20083;-67
2023/12/14 14:20:03;;;;;;;18.98;8.65;;;5.80;99.90;;;;;;5013435;28;20412;-66
2023/12/14 14:22:29;;;;;;;17.55;8.70;;;5.80;99.90;;;;;;5031295;28;20124;-66
2023/12/14 14:24:55;;;;;;;16.77;8.57;;;5.70;99.90;;;;;;5009658;28;20042;-67
2023/12/14 14:27:20;;;;;;;17.40;8.40;;;5.70;99.90;;;;;;5024431;28;20407;-64